Time;durP1;ratioP1;P1;durP2;ratioP2;P2;SDS_P1;SDS_P2;PMS_P1;PMS_P2;Temp;Humidity;BMP_temperature;BMP_pressure;BME280_temperature;BME280_humidity;BME280_pressure;Samples;Min_cycle;Max_cycle;Signal;HPM_P1;HPM_P2
2023/12/29 00:01:54;;;;;;;;;6.33;3.33;;;;;9.96;86.81;101261.88;4996455;28;45459;-49
2023/12/29 00:04:20;;;;;;;;;3.00;1.00;;;;;9.95;86.81;101259.38;4996116;28;46182;-48
2023/12/29 00:06:45;;;;;;;;;2.67;2.67;;;;;9.88;86.83;101248.41;4996131;28;45488;-49
2023/12/29 00:09:10;;;;;;;;;6.67;1.67;;;;;10.03;86.67;101261.34;4996364;28;45341;-48
2023/12/29 00:11:36;;;;;;;;;5.67;1.00;;;;;10.05;86.91;101267.38;4996712;28;45311;-52
2023/12/29 00:14:01;;;;;;;;;1.33;1.33;;;;;10.09;86.83;101263.50;4995797;28;49371;-53
2023/12/29 00:16:29;;;;;;;;;2.67;2.00;;;;;10.13;86.56;101271.06;4996200;28;45391;-49
2023/12/29 00:18:54;;;;;;;;;2.67;2.67;;;;;10.19;86.21;101273.19;4996282;28;45416;-52
2023/12/29 00:21:21;;;;;;;;;8.33;1.33;;;;;10.24;86.06;101256.88;4996079;28;45445;-51
2023/12/29 00:23:46;;;;;;;;;0.33;0.33;;;;;10.28;85.99;101266.31;4996005;28;46100;-52
2023/12/29 00:26:12;;;;;;;;;1.67;1.00;;;;;10.22;85.45;101246.34;4995981;28;45442;-55
2023/12/29 00:28:40;;;;;;;;;1.00;1.00;;;;;10.34;85.56;101267.59;4996027;28;45540;-52
2023/12/29 00:31:06;;;;;;;;;1.00;1.00;;;;;10.35;85.69;101253.31;4996291;28;45374;-52
2023/12/29 00:33:31;;;;;;;;;3.00;2.33;;;;;10.45;85.24;101267.50;4995796;28;47374;-52
2023/12/29 00:35:57;;;;;;;;;2.33;1.00;;;;;10.49;84.95;101267.09;4995542;28;45432;-48
2023/12/29 00:38:22;;;;;;;;;2.00;2.00;;;;;10.54;84.81;101260.56;4995832;28;45400;-43
2023/12/29 00:40:48;;;;;;;;;5.33;2.67;;;;;10.53;84.69;101251.69;4996097;28;45545;-52
2023/12/29 00:43:14;;;;;;;;;3.00;2.00;;;;;10.60;84.78;101263.50;4995742;28;45942;-52
2023/12/29 00:45:39;;;;;;;;;3.00;1.33;;;;;10.62;84.35;101258.91;4995810;28;45443;-53
2023/12/29 00:48:05;;;;;;;;;2.00;1.00;;;;;10.66;84.05;101260.31;4996006;28;45410;-53
2023/12/29 00:50:30;;;;;;;;;7.67;2.00;;;;;10.68;84.17;101257.50;4995948;28;45441;-51
2023/12/29 00:52:55;;;;;;;;;3.33;2.00;;;;;10.71;84.32;101239.47;4996541;28;46001;-43
2023/12/29 00:55:21;;;;;;;;;1.00;1.00;;;;;10.71;84.17;101249.25;4999213;28;45407;-43
2023/12/29 00:57:46;;;;;;;;;1.67;1.67;;;;;10.70;84.28;101255.53;4997768;28;45458;-46
2023/12/29 01:00:12;;;;;;;;;3.33;2.00;;;;;10.70;83.98;101248.44;4998899;28;45456;-54
2023/12/29 01:02:38;;;;;;;;;2.33;1.67;;;;;10.70;83.76;101251.09;4998845;28;48223;-51
2023/12/29 01:05:05;;;;;;;;;5.33;2.00;;;;;10.69;84.03;101254.72;4998975;28;45434;-47
2023/12/29 01:07:31;;;;;;;;;6.67;1.67;;;;;10.68;83.84;101255.69;4998835;28;45774;-44
2023/12/29 01:09:56;;;;;;;;;4.33;0.33;;;;;10.67;83.90;101248.69;4999070;28;45337;-45
2023/12/29 01:12:21;;;;;;;;;1.00;1.00;;;;;10.60;84.33;101247.53;4998737;28;46323;-50
2023/12/29 01:14:46;;;;;;;;;1.00;1.00;;;;;10.61;83.89;101246.56;4998679;28;45343;-43
2023/12/29 01:17:12;;;;;;;;;3.00;1.00;;;;;10.60;84.33;101239.56;4998758;28;45426;-50
2023/12/29 01:19:37;;;;;;;;;4.33;1.67;;;;;10.60;84.41;101236.06;4998950;28;45335;-43
2023/12/29 01:22:03;;;;;;;;;2.00;2.00;;;;;10.61;84.35;101227.94;4998494;28;46946;-48
2023/12/29 01:24:28;;;;;;;;;6.00;2.00;;;;;10.63;84.25;101228.66;4998698;28;45236;-45
2023/12/29 01:26:53;;;;;;;;;2.67;2.67;;;;;10.61;84.26;101219.94;4998720;28;45446;-43
2023/12/29 01:29:19;;;;;;;;;2.00;1.00;;;;;10.59;84.17;101223.75;4998746;28;45347;-45
2023/12/29 01:31:44;;;;;;;;;3.00;1.00;;;;;10.56;84.39;101227.50;4998532;28;45296;-44
2023/12/29 01:34:09;;;;;;;;;0.67;0.67;;;;;10.57;84.17;101226.50;4998570;28;45312;-46
2023/12/29 01:36:35;;;;;;;;;4.67;1.00;;;;;10.58;84.41;101222.91;4998404;28;45248;-44
2023/12/29 01:39:02;;;;;;;;;1.00;1.00;;;;;10.56;84.30;101222.19;4998805;28;45288;-44
2023/12/29 01:41:27;;;;;;;;;2.33;2.00;;;;;10.64;83.93;101227.66;4998219;28;46206;-42
2023/12/29 01:44:01;;;;;;;;;1.00;1.00;;;;;10.66;84.23;101228.38;4998106;28;49192;-43
2023/12/29 01:46:33;;;;;;;;;4.67;1.67;;;;;10.65;84.33;101225.84;4998475;28;45283;-42
2023/12/29 01:48:59;;;;;;;;;4.33;2.67;;;;;10.68;83.98;101237.06;4998635;28;45417;-48
2023/12/29 01:51:26;;;;;;;;;1.00;1.00;;;;;10.71;84.22;101239.47;4998297;28;46407;-43
2023/12/29 01:53:57;;;;;;;;;6.00;1.00;;;;;10.72;84.04;101234.97;4998133;28;45454;-43
2023/12/29 01:56:23;;;;;;;;;1.33;1.33;;;;;10.74;83.61;101247.19;4998292;28;45469;-43
2023/12/29 01:58:49;;;;;;;;;8.67;2.33;;;;;10.74;83.99;101244.53;4998407;28;45153;-43
2023/12/29 02:01:18;;;;;;;;;3.00;1.33;;;;;10.82;83.75;101237.66;4998055;28;45315;-47
2023/12/29 02:03:45;;;;;;;;;2.00;1.00;;;;;10.85;83.41;101240.06;4996834;28;45410;-43
2023/12/29 02:06:10;;;;;;;;;1.67;1.67;;;;;10.89;83.22;101238.81;4998169;28;45252;-43
2023/12/29 02:08:40;;;;;;;;;5.33;2.67;;;;;10.90;83.42;101241.31;4998102;28;45341;-43
2023/12/29 02:11:06;;;;;;;;;3.00;1.00;;;;;10.92;83.19;101243.88;4997711;28;46366;-42
2023/12/29 02:13:31;;;;;;;;;3.67;1.67;;;;;10.96;83.17;101250.59;4997850;28;45382;-43
2023/12/29 02:16:05;;;;;;;;;3.67;1.33;;;;;10.96;83.03;101242.63;4997893;28;45370;-46
2023/12/29 02:18:33;;;;;;;;;2.00;0.67;;;;;10.99;83.07;101239.66;4997967;28;45390;-44
2023/12/29 02:20:58;;;;;;;;;1.00;1.00;;;;;10.99;82.96;101243.16;4997636;28;46470;-42
2023/12/29 02:23:23;;;;;;;;;5.00;2.33;;;;;11.00;83.27;101236.03;4997483;28;50673;-44
2023/12/29 02:25:50;;;;;;;;;3.00;1.00;;;;;11.02;82.87;101250.03;4997973;28;45254;-49
2023/12/29 02:28:26;;;;;;;;;2.00;2.00;;;;;11.03;82.96;101243.72;4997875;28;45279;-44
2023/12/29 02:30:56;;;;;;;;;1.00;1.00;;;;;11.06;82.88;101243.47;4997539;28;46366;-45
2023/12/29 02:33:22;;;;;;;;;2.67;1.00;;;;;11.00;83.31;101236.03;4997596;28;45520;-42
2023/12/29 02:35:51;;;;;;;;;2.67;0.33;;;;;10.98;82.93;101224.66;4996337;28;45392;-45
2023/12/29 02:38:17;;;;;;;;;4.00;1.33;;;;;11.03;83.02;101234.91;4997840;28;45367;-44
2023/12/29 02:40:42;;;;;;;;;5.33;0.00;;;;;11.09;82.78;101240.53;4997217;28;47352;-45
2023/12/29 02:43:11;;;;;;;;;3.33;1.33;;;;;11.06;82.66;101235.47;4997440;28;45523;-44
2023/12/29 02:45:36;;;;;;;;;2.67;1.00;;;;;11.08;83.21;101227.34;4997598;28;45494;-44
2023/12/29 02:48:02;;;;;;;;;4.67;1.00;;;;;11.09;83.32;101227.22;4997857;28;45494;-43
2023/12/29 02:50:27;;;;;;;;;2.00;2.00;;;;;11.09;83.26;101229.88;4997414;28;47380;-44
2023/12/29 02:52:53;;;;;;;;;5.00;1.67;;;;;11.10;82.91;101231.56;4997493;28;45311;-43
2023/12/29 02:55:18;;;;;;;;;3.00;1.33;;;;;11.10;83.31;101228.06;4997493;28;45533;-45
2023/12/29 02:57:44;;;;;;;;;2.67;2.00;;;;;11.05;83.00;101217.81;4997560;28;45469;-45
2023/12/29 03:00:09;;;;;;;;;1.67;1.67;;;;;11.08;83.17;101220.22;4997191;28;46050;-43
2023/12/29 03:02:35;;;;;;;;;2.33;2.00;;;;;11.06;82.86;101211.50;4997059;28;45319;-43
2023/12/29 03:05:00;;;;;;;;;5.00;1.00;;;;;11.03;83.25;101201.13;4997372;28;45414;-43
2023/12/29 03:07:26;;;;;;;;;3.33;2.00;;;;;11.05;83.07;101196.53;4997367;28;45383;-50
2023/12/29 03:09:51;;;;;;;;;3.67;1.00;;;;;11.02;83.15;101187.97;4997041;28;46830;-45
2023/12/29 03:12:17;;;;;;;;;1.00;1.00;;;;;11.00;83.03;101177.47;4997106;28;45325;-50
2023/12/29 03:14:43;;;;;;;;;2.33;1.00;;;;;11.01;83.58;101180.97;4996508;28;45188;-44
2023/12/29 03:17:09;;;;;;;;;2.00;2.00;;;;;10.96;83.68;101187.53;4997309;28;45321;-46
2023/12/29 03:19:35;;;;;;;;;2.00;1.00;;;;;10.83;83.75;101172.78;4996812;28;45952;-47
2023/12/29 03:22:01;;;;;;;;;3.00;1.33;;;;;10.88;84.14;101183.91;4996958;28;45403;-44
2023/12/29 03:24:27;;;;;;;;;5.33;1.00;;;;;10.90;83.73;101189.91;4997084;28;45540;-43
2023/12/29 03:26:53;;;;;;;;;3.00;0.67;;;;;10.92;83.76;101196.78;4997003;28;45434;-42
2023/12/29 03:29:18;;;;;;;;;3.00;1.00;;;;;10.93;83.89;101181.66;4996623;28;46873;-42
2023/12/29 03:31:43;;;;;;;;;3.67;1.33;;;;;10.96;83.71;101198.19;4996888;28;45784;-44
2023/12/29 03:34:09;;;;;;;;;4.33;2.00;;;;;10.99;83.82;101186.41;4996899;28;45398;-44
2023/12/29 03:36:34;;;;;;;;;1.00;1.00;;;;;11.00;83.66;101177.47;4996968;28;45356;-55
2023/12/29 03:39:00;;;;;;;;;2.00;2.00;;;;;10.98;83.86;101174.94;4996511;28;46144;-46
2023/12/29 03:41:25;;;;;;;;;4.00;1.00;;;;;10.99;83.89;101170.44;4995281;28;45347;-48
2023/12/29 03:43:50;;;;;;;;;5.33;2.00;;;;;10.97;83.77;101175.06;4997008;28;45423;-43
2023/12/29 03:46:17;;;;;;;;;3.00;1.33;;;;;10.98;83.36;101166.94;4996739;28;45497;-42
2023/12/29 03:48:43;;;;;;;;;5.00;0.67;;;;;10.92;83.85;101156.03;4996482;28;46385;-45
2023/12/29 03:51:08;;;;;;;;;1.00;1.00;;;;;10.96;83.54;101165.41;4996610;28;45507;-43
2023/12/29 03:53:33;;;;;;;;;2.00;0.33;;;;;10.94;83.55;101148.72;4996420;28;45624;-43
2023/12/29 03:55:58;;;;;;;;;0.00;0.00;;;;;10.95;84.25;101164.53;4996788;28;45491;-42
2023/12/29 03:58:24;;;;;;;;;2.00;1.00;;;;;10.93;83.84;101147.06;4996467;28;46154;-44
2023/12/29 04:00:49;;;;;;;;;7.33;2.67;;;;;10.92;84.27;101161.34;4996479;28;45489;-52
2023/12/29 04:03:14;;;;;;;;;2.00;1.33;;;;;10.88;84.05;101134.16;4996535;28;45294;-54
2023/12/29 04:05:40;;;;;;;;;2.00;0.67;;;;;10.85;84.10;101150.41;4996543;28;45443;-55
2023/12/29 04:08:05;;;;;;;;;3.67;0.00;;;;;10.87;83.97;101152.91;4996073;28;47166;-56
2023/12/29 04:10:31;;;;;;;;;2.00;1.00;;;;;10.88;83.66;101154.63;4996171;28;45438;-55
2023/12/29 04:12:56;;;;;;;;;5.67;2.00;;;;;10.80;84.02;101135.84;4996453;28;45377;-55
2023/12/29 04:15:21;;;;;;;;;6.00;1.00;;;;;10.62;83.49;101103.72;4996329;28;45521;-55
2023/12/29 04:17:47;;;;;;;;;1.00;1.00;;;;;10.90;83.60;101149.97;4994875;28;46345;-56
2023/12/29 04:20:12;;;;;;;;;5.00;2.00;;;;;10.94;83.15;101149.56;4996051;28;45409;-54
2023/12/29 04:22:37;;;;;;;;;6.67;1.67;;;;;10.94;83.06;101144.25;4996133;28;45459;-44
2023/12/29 04:25:03;;;;;;;;;2.00;0.00;;;;;10.95;83.49;101148.56;4996531;28;45441;-55
2023/12/29 04:27:28;;;;;;;;;2.33;1.00;;;;;10.98;83.13;101142.97;4997502;28;46871;-57
2023/12/29 04:29:54;;;;;;;;;2.00;0.67;;;;;10.98;83.39;101142.97;4999846;28;45899;-56
2023/12/29 04:32:19;;;;;;;;;3.33;1.33;;;;;11.01;83.35;101152.53;4999836;28;45374;-54
2023/12/29 04:34:44;;;;;;;;;5.00;1.00;;;;;11.02;83.67;101154.19;4999742;28;45343;-46
2023/12/29 04:37:10;;;;;;;;;3.33;1.00;;;;;11.04;83.04;101146.94;4999320;28;46194;-54
2023/12/29 04:39:35;;;;;;;;;1.00;0.67;;;;;11.03;82.92;101144.38;4999447;28;45427;-54
2023/12/29 04:42:01;;;;;;;;;3.00;1.00;;;;;11.05;83.22;101151.25;4999433;28;45356;-54
2023/12/29 04:44:26;;;;;;;;;2.00;1.00;;;;;11.03;83.01;101147.88;4999861;28;45508;-46
2023/12/29 04:46:51;;;;;;;;;1.33;1.00;;;;;11.06;83.23;101160.09;4998980;28;52840;-47
2023/12/29 04:49:17;;;;;;;;;5.67;1.67;;;;;11.06;83.33;101157.44;4999310;28;45473;-55
2023/12/29 04:51:42;;;;;;;;;2.33;0.67;;;;;11.02;82.85;101142.72;4999281;28;45308;-45
2023/12/29 04:54:07;;;;;;;;;2.67;1.00;;;;;11.07;83.35;101146.63;4999564;28;45256;-51
2023/12/29 04:56:33;;;;;;;;;6.00;2.00;;;;;11.08;83.35;101143.00;4998972;28;46699;-55
2023/12/29 04:58:59;;;;;;;;;3.00;0.00;;;;;11.08;83.15;101158.13;4999276;28;45316;-43
2023/12/29 05:01:24;;;;;;;;;4.00;1.67;;;;;11.06;82.99;101150.28;4999177;28;45251;-43
2023/12/29 05:03:49;;;;;;;;;0.33;0.33;;;;;11.10;83.30;101142.84;4999321;28;45408;-47
2023/12/29 05:06:15;;;;;;;;;3.33;3.00;;;;;11.10;83.37;101150.84;4999049;28;46241;-51
2023/12/29 05:08:40;;;;;;;;;3.00;1.00;;;;;11.10;82.81;101146.34;4998783;28;45434;-50
2023/12/29 05:11:06;;;;;;;;;2.00;1.00;;;;;11.08;83.27;101136.81;4998925;28;45398;-49
2023/12/29 05:13:31;;;;;;;;;0.67;0.67;;;;;11.06;82.58;101139.63;4999118;28;45358;-48
2023/12/29 05:15:56;;;;;;;;;10.00;2.00;;;;;11.06;83.27;101142.28;4998641;28;46822;-47
2023/12/29 05:18:22;;;;;;;;;1.67;1.67;;;;;11.06;83.22;101139.63;4997436;28;45463;-51
2023/12/29 05:20:47;;;;;;;;;1.00;1.00;;;;;11.09;82.85;101139.34;4998855;28;45302;-43
2023/12/29 05:23:13;;;;;;;;;6.33;2.00;;;;;11.09;82.73;101139.34;5014234;28;45452;-55
2023/12/29 05:25:39;;;;;;;;;1.33;0.00;;;;;11.11;82.95;101134.72;4998517;28;46787;-52
2023/12/29 05:28:04;;;;;;;;;7.67;3.00;;;;;11.11;82.80;101141.88;4997208;28;46132;-54
2023/12/29 05:30:31;;;;;;;;;5.33;1.33;;;;;11.11;82.90;101142.69;4998735;28;45385;-56
2023/12/29 05:32:57;;;;;;;;;2.00;0.00;;;;;11.10;83.26;101142.84;4998900;28;45292;-56
2023/12/29 05:35:22;;;;;;;;;1.33;0.33;;;;;11.01;82.82;101125.91;4998353;28;46037;-55
2023/12/29 05:37:47;;;;;;;;;2.33;1.00;;;;;11.06;83.04;101139.63;4997998;28;45420;-51
2023/12/29 05:40:13;;;;;;;;;0.33;0.33;;;;;11.08;83.14;101140.34;4998439;28;45342;-52
2023/12/29 05:42:38;;;;;;;;;6.00;1.00;;;;;11.06;83.11;101136.97;4998955;28;45216;-53
2023/12/29 05:45:04;;;;;;;;;3.33;2.00;;;;;11.09;83.59;101151.84;4998323;28;45953;-54
2023/12/29 05:47:29;;;;;;;;;6.00;1.67;;;;;11.11;83.14;101152.50;4998324;28;45829;-49
2023/12/29 05:49:55;;;;;;;;;3.00;1.67;;;;;11.09;83.15;101146.50;4998622;28;45276;-48
2023/12/29 05:52:21;;;;;;;;;3.33;2.33;;;;;11.12;83.19;101139.06;4998727;28;45640;-55
2023/12/29 05:54:46;;;;;;;;;1.00;0.00;;;;;11.14;83.14;101139.75;4998303;28;46374;-55
2023/12/29 05:57:12;;;;;;;;;7.67;2.00;;;;;11.09;83.39;101144.69;4998246;28;45370;-44
2023/12/29 05:59:37;;;;;;;;;8.33;2.00;;;;;11.12;83.14;101148.88;4998388;28;45441;-48
2023/12/29 06:02:03;;;;;;;;;3.00;2.00;;;;;11.16;82.88;101153.78;4998349;28;45302;-48
2023/12/29 06:04:28;;;;;;;;;2.67;1.00;;;;;11.16;82.69;101161.75;4997863;28;45994;-55
2023/12/29 06:06:54;;;;;;;;;2.33;2.00;;;;;11.17;82.83;101152.81;4998231;28;45465;-56
2023/12/29 06:09:19;;;;;;;;;1.00;1.00;;;;;11.19;82.70;101160.66;4998308;28;45354;-54
2023/12/29 06:11:45;;;;;;;;;0.00;0.00;;;;;11.20;83.10;101165.81;4998412;28;45252;-45
2023/12/29 06:14:10;;;;;;;;;0.33;0.33;;;;;11.22;82.75;101160.38;4997914;28;45458;-55
2023/12/29 06:16:36;;;;;;;;;1.00;1.00;;;;;11.20;82.72;101168.47;4997923;28;45181;-46
2023/12/29 06:19:01;;;;;;;;;1.67;1.33;;;;;11.22;82.96;101165.69;4998015;28;45406;-44
2023/12/29 06:21:26;;;;;;;;;2.67;0.00;;;;;11.20;83.12;101162.31;4998225;28;45376;-41
2023/12/29 06:23:52;;;;;;;;;2.33;1.00;;;;;11.21;82.51;101170.19;4998016;28;45325;-48
2023/12/29 06:26:19;;;;;;;;;0.67;0.67;;;;;11.22;82.72;101171.88;4997661;28;45370;-49
2023/12/29 06:28:45;;;;;;;;;5.00;1.33;;;;;11.23;82.72;101170.88;4997823;28;45403;-49
2023/12/29 06:31:11;;;;;;;;;3.33;1.00;;;;;11.25;82.58;101173.41;4997710;28;45508;-42
2023/12/29 06:33:40;;;;;;;;;7.00;1.00;;;;;11.23;82.70;101167.38;4997461;28;46191;-53
2023/12/29 06:36:06;;;;;;;;;0.67;0.00;;;;;11.24;82.46;101169.03;4997477;28;45483;-54
2023/12/29 06:38:33;;;;;;;;;2.00;0.67;;;;;11.27;82.46;101167.94;4997491;28;46094;-50
2023/12/29 06:41:00;;;;;;;;;3.00;0.00;;;;;11.23;82.25;101160.22;4997741;28;45337;-55
2023/12/29 06:43:25;;;;;;;;;2.00;1.00;;;;;11.27;82.19;101167.94;4997320;28;46180;-50
2023/12/29 06:45:50;;;;;;;;;1.00;0.33;;;;;11.28;81.49;101166.94;4997434;28;45363;-52
2023/12/29 06:48:16;;;;;;;;;1.00;1.00;;;;;11.21;81.91;101146.22;4997199;28;45423;-52
2023/12/29 06:50:41;;;;;;;;;1.33;0.00;;;;;11.27;81.58;101152.78;4997037;28;45417;-46
2023/12/29 06:53:07;;;;;;;;;0.00;0.00;;;;;11.25;81.55;101162.75;4997340;28;46068;-53
2023/12/29 06:55:32;;;;;;;;;4.33;1.00;;;;;11.26;81.47;101160.94;4997440;28;45368;-48
2023/12/29 06:57:57;;;;;;;;;1.67;0.00;;;;;11.25;81.83;101149.44;4997284;28;45364;-51
2023/12/29 07:00:23;;;;;;;;;1.00;0.00;;;;;11.24;81.46;101155.72;4997562;28;45317;-53
2023/12/29 07:02:48;;;;;;;;;4.33;1.00;;;;;11.22;82.02;101152.38;4997091;28;46075;-48
2023/12/29 07:05:14;;;;;;;;;2.33;0.67;;;;;11.21;81.82;101148.03;4997221;28;45436;-45
2023/12/29 07:07:39;;;;;;;;;0.33;0.33;;;;;11.23;82.07;101148.72;4997234;28;45460;-42
2023/12/29 07:10:06;;;;;;;;;4.00;0.00;;;;;11.20;81.95;101141.84;4997534;28;45430;-54
2023/12/29 07:12:31;;;;;;;;;1.33;1.33;;;;;11.09;81.80;101127.88;4997088;28;46981;-48
2023/12/29 07:14:56;;;;;;;;;0.00;0.00;;;;;11.21;81.58;101153.38;4997274;28;45398;-43
2023/12/29 07:17:22;;;;;;;;;1.00;1.00;;;;;11.22;82.17;101149.72;4997157;28;45276;-43
2023/12/29 07:19:47;;;;;;;;;1.00;0.00;;;;;11.24;81.94;101147.75;4997455;28;45315;-44
2023/12/29 07:22:12;;;;;;;;;4.00;0.33;;;;;11.21;81.69;101151.53;4996820;28;46142;-44
2023/12/29 07:24:38;;;;;;;;;2.33;1.00;;;;;11.19;81.66;101144.66;4997012;28;45235;-48
2023/12/29 07:27:04;;;;;;;;;1.00;1.00;;;;;11.16;81.47;101140.44;4997027;28;45319;-47
2023/12/29 07:29:30;;;;;;;;;1.00;0.00;;;;;11.10;81.63;101143.69;4997170;28;45335;-46
2023/12/29 07:31:56;;;;;;;;;2.00;1.00;;;;;11.01;82.14;101135.72;4996591;28;45484;-46
2023/12/29 07:34:21;;;;;;;;;2.67;0.00;;;;;10.99;82.77;101141.16;4996472;28;45382;-43
2023/12/29 07:36:46;;;;;;;;;1.00;0.00;;;;;10.95;82.94;101142.41;4996479;28;45306;-47
2023/12/29 07:39:12;;;;;;;;;0.00;0.00;;;;;10.92;83.00;101145.38;4996694;28;45480;-44
2023/12/29 07:41:44;;;;;;;;;1.00;0.00;;;;;10.90;83.32;101142.00;4995145;28;45721;-45
2023/12/29 07:44:13;;;;;;;;;2.33;1.00;;;;;10.80;83.47;101127.84;4996680;28;45396;-46
2023/12/29 07:46:39;;;;;;;;;1.00;1.00;;;;;10.79;83.49;101132.34;4996304;28;45497;-45
2023/12/29 07:49:05;;;;;;;;;2.67;2.33;;;;;10.77;84.04;101128.13;4996713;28;45414;-48
2023/12/29 07:51:31;;;;;;;;;1.00;1.00;;;;;10.73;84.10;101140.84;4996135;28;47177;-48
2023/12/29 07:53:56;;;;;;;;;2.33;1.00;;;;;10.70;84.60;101126.03;4996489;28;45256;-47
2023/12/29 07:56:22;;;;;;;;;2.67;1.00;;;;;10.65;84.44;101133.56;4996538;28;45301;-48
2023/12/29 07:58:47;;;;;;;;;2.33;1.00;;;;;10.67;84.42;101131.63;4996698;28;45548;-44
2023/12/29 08:01:13;;;;;;;;;1.00;0.00;;;;;10.67;84.63;101136.09;4996270;28;46126;-43
2023/12/29 08:03:38;;;;;;;;;1.00;1.00;;;;;10.67;84.79;101136.94;4996461;28;45268;-43
2023/12/29 08:06:03;;;;;;;;;3.00;1.00;;;;;10.68;84.57;101129.78;4996510;28;45287;-44
2023/12/29 08:08:29;;;;;;;;;4.00;1.67;;;;;10.66;84.33;101135.28;4996454;28;45329;-44
2023/12/29 08:10:54;;;;;;;;;0.67;0.00;;;;;10.71;84.60;101145.50;4996544;28;46097;-41
2023/12/29 08:13:19;;;;;;;;;1.00;0.67;;;;;10.71;84.55;101130.38;4996249;28;45395;-46
2023/12/29 08:15:45;;;;;;;;;2.00;1.00;;;;;10.72;85.00;101129.38;4996432;28;45426;-44
2023/12/29 08:18:10;;;;;;;;;2.67;0.00;;;;;10.77;84.67;101136.09;4996428;28;45386;-48
2023/12/29 08:20:35;;;;;;;;;0.00;0.00;;;;;10.81;84.36;101141.00;4996138;28;45620;-49
2023/12/29 08:23:02;;;;;;;;;0.33;0.33;;;;;10.82;84.53;101137.38;4996253;28;45446;-45
2023/12/29 08:25:28;;;;;;;;;2.00;0.00;;;;;10.84;84.09;101142.56;4994983;28;45470;-47
2023/12/29 08:27:54;;;;;;;;;1.67;1.33;;;;;10.79;83.70;101137.66;4996310;28;45261;-43
2023/12/29 08:30:19;;;;;;;;;2.33;0.00;;;;;10.90;83.65;101126.03;4995752;28;45929;-43
2023/12/29 08:32:44;;;;;;;;;2.00;0.00;;;;;10.91;83.48;101136.56;4995790;28;49503;-47
2023/12/29 08:35:10;;;;;;;;;1.00;1.00;;;;;10.93;83.59;101128.41;4996183;28;45349;-44
2023/12/29 08:37:35;;;;;;;;;6.00;1.00;;;;;10.96;83.63;101144.13;4996128;28;45398;-52
2023/12/29 08:40:00;;;;;;;;;0.33;0.00;;;;;10.98;83.75;101134.16;4995978;28;48504;-45
2023/12/29 08:42:27;;;;;;;;;2.00;1.00;;;;;10.98;83.87;101131.50;4995803;28;45421;-45
2023/12/29 08:44:53;;;;;;;;;1.00;0.67;;;;;11.06;83.62;101138.78;4995277;28;45378;-43
2023/12/29 08:47:18;;;;;;;;;1.67;1.67;;;;;11.09;83.32;101136.69;4995592;28;45388;-47
2023/12/29 08:49:43;;;;;;;;;1.00;1.00;;;;;11.17;83.50;101147.47;4995359;28;45997;-44
2023/12/29 08:52:09;;;;;;;;;1.00;1.00;;;;;11.20;83.33;101143.69;4995744;28;45391;-48
2023/12/29 08:54:36;;;;;;;;;6.00;2.00;;;;;11.25;82.97;101149.44;4995667;28;45343;-46
2023/12/29 08:57:02;;;;;;;;;2.33;1.00;;;;;11.26;82.50;101137.81;4995650;28;45484;-45
2023/12/29 08:59:27;;;;;;;;;2.00;0.67;;;;;11.48;82.30;101160.63;4995427;28;46984;-44
2023/12/29 09:01:53;;;;;;;;;1.00;1.00;;;;;11.55;81.99;101140.44;4995032;28;49399;-49
2023/12/29 09:04:18;;;;;;;;;2.33;0.00;;;;;11.64;81.33;101136.91;4995636;28;45441;-44
2023/12/29 09:06:44;;;;;;;;;0.00;0.00;;;;;11.74;81.30;101152.84;4995605;28;45326;-47
2023/12/29 09:09:12;;;;;;;;;0.00;0.00;;;;;11.85;80.26;101159.88;4995341;28;45357;-43
2023/12/29 09:11:38;;;;;;;;;4.33;1.00;;;;;11.91;80.14;101154.81;4994978;28;45412;-53
2023/12/29 09:14:04;;;;;;;;;3.33;0.00;;;;;12.02;79.84;101161.78;4997695;28;45458;-57
2023/12/29 09:16:30;;;;;;;;;1.33;1.00;;;;;12.21;79.18;101163.53;4998848;28;45469;-54
2023/12/29 09:18:55;;;;;;;;;2.67;1.33;;;;;12.45;78.53;101176.34;4998536;28;45454;-53
2023/12/29 09:21:20;;;;;;;;;1.67;0.67;;;;;12.56;78.14;101172.66;4998741;28;45228;-54
2023/12/29 09:23:47;;;;;;;;;6.00;1.00;;;;;12.65;77.29;101185.09;4998977;28;45453;-53
2023/12/29 09:26:12;;;;;;;;;3.00;1.00;;;;;12.73;76.74;101186.03;4998696;28;45459;-53
2023/12/29 09:28:38;;;;;;;;;1.00;1.00;;;;;12.47;76.52;101142.34;4998491;28;46280;-53
2023/12/29 09:31:03;;;;;;;;;1.00;1.00;;;;;12.71;76.75;101184.47;4998302;28;45303;-52
2023/12/29 09:33:28;;;;;;;;;1.00;1.00;;;;;12.76;76.36;101186.69;4998345;28;45435;-53
2023/12/29 09:35:54;;;;;;;;;1.00;1.00;;;;;12.68;76.15;101187.44;4998968;28;45263;-54
2023/12/29 09:38:19;;;;;;;;;0.67;0.33;;;;;12.57;76.51;101161.81;4998251;28;47029;-55
2023/12/29 09:40:46;;;;;;;;;2.67;1.33;;;;;12.68;76.57;101180.31;4998417;28;45720;-50
2023/12/29 09:43:12;;;;;;;;;1.00;1.00;;;;;12.80;76.74;101178.25;4998406;28;45379;-55
2023/12/29 09:45:42;;;;;;;;;6.67;0.00;;;;;13.15;74.57;101158.75;4998476;28;45398;-48
2023/12/29 09:48:09;;;;;;;;;2.00;1.00;;;;;13.30;73.80;101167.06;4997599;28;46413;-48
2023/12/29 09:50:35;;;;;;;;;1.33;0.33;;;;;14.46;72.67;101170.31;4998085;28;45453;-51
2023/12/29 09:53:03;;;;;;;;;0.00;0.00;;;;;15.67;68.46;101142.03;4998261;28;45346;-51
2023/12/29 09:55:29;;;;;;;;;0.67;0.67;;;;;16.33;64.30;101174.03;4998495;28;45358;-53
2023/12/29 09:57:55;;;;;;;;;2.25;0.75;;;;;16.20;64.58;101161.16;4998032;28;45474;-50
2023/12/29 10:00:21;;;;;;;;;0.25;0.25;;;;;16.07;63.69;101148.28;4998168;28;45410;-53
2023/12/29 10:02:52;;;;;;;;;1.00;1.00;;;;;15.42;64.66;101168.00;4998018;28;45578;-44
2023/12/29 10:05:17;;;;;;;;;2.25;1.00;;;;;14.77;67.90;101180.47;4998284;28;45428;-42
2023/12/29 10:07:44;;;;;;;;;1.33;0.00;;;;;14.32;68.66;101192.31;4998024;28;45317;-43
2023/12/29 10:10:16;;;;;;;;;1.75;0.00;;;;;14.08;69.70;101183.19;4998010;28;45644;-41
2023/12/29 10:12:42;;;;;;;;;1.00;1.00;;;;;13.92;70.00;101181.22;4997906;28;45521;-45
2023/12/29 10:15:25;;;;;;;;;1.67;1.00;;;;;13.81;70.76;101184.16;4998135;28;45341;-47
2023/12/29 10:18:12;;;;;;;;;4.00;1.00;;;;;13.67;71.26;101193.59;4997507;28;45349;-46
2023/12/29 10:20:57;;;;;;;;;5.33;1.33;;;;;13.63;71.46;101188.72;4997677;28;45465;-43
2023/12/29 10:24:07;;;;;;;;;0.00;0.00;;;;;13.52;72.24;101186.28;4997753;28;45334;-41
2023/12/29 10:26:34;;;;;;;;;0.00;0.00;;;;;13.36;72.32;101162.97;4956135;28;45553;-43
2023/12/29 10:28:59;;;;;;;;;0.00;0.00;;;;;13.45;73.09;101186.09;4955657;28;45385;-41
2023/12/29 10:31:25;;;;;;;;;2.33;1.00;;;;;13.65;71.96;101190.25;4955802;28;45479;-47
2023/12/29 10:33:52;;;;;;;;;2.67;1.00;;;;;13.56;72.19;101180.47;4956226;28;45439;-42
2023/12/29 10:36:17;;;;;;;;;0.33;0.33;;;;;13.46;72.19;101193.09;4956189;28;45564;-45
2023/12/29 10:38:43;;;;;;;;;3.33;2.00;;;;;13.32;72.54;101190.97;4955357;28;45488;-42
2023/12/29 10:41:16;;;;;;;;;1.00;1.00;;;;;13.10;72.94;101182.38;4956113;28;45444;-45
2023/12/29 10:43:44;;;;;;;;;1.50;0.50;;;;;13.04;73.49;101185.66;4956098;28;45532;-43
2023/12/29 10:46:11;;;;;;;;;2.00;2.00;;;;;13.01;73.58;101188.63;4940362;28;45412;-45
2023/12/29 10:48:37;;;;;;;;;1.33;0.33;;;;;12.93;73.82;101184.03;4955789;28;46347;-44
2023/12/29 10:51:04;;;;;;;;;1.33;0.67;;;;;12.88;74.40;101166.81;4955502;28;45293;-42
2023/12/29 10:53:33;;;;;;;;;1.00;1.00;;;;;13.02;73.88;101168.97;4956026;28;45448;-46
2023/12/29 10:55:59;;;;;;;;;2.33;1.00;;;;;13.01;73.69;101153.91;4955867;28;45329;-42
2023/12/29 10:58:29;;;;;;;;;1.00;1.00;;;;;13.18;73.45;101162.91;4955269;28;45445;-43
2023/12/29 11:00:57;;;;;;;;;8.67;1.67;;;;;13.32;73.08;101157.09;4955761;28;45455;-42
2023/12/29 11:03:24;;;;;;;;;0.67;0.67;;;;;13.76;71.74;101143.69;4977204;28;45308;-42
2023/12/29 11:05:49;;;;;;;;;3.33;1.33;;;;;14.16;70.94;101156.47;4997206;28;45418;-43
2023/12/29 11:08:19;;;;;;;;;1.00;1.00;;;;;14.39;70.62;101170.09;4982607;28;46157;-42
2023/12/29 11:10:47;;;;;;;;;4.00;0.67;;;;;14.45;69.86;101153.41;4991323;28;45350;-46
2023/12/29 11:13:13;;;;;;;;;4.00;1.00;;;;;14.99;69.17;101150.38;4994537;28;45238;-41
2023/12/29 11:15:44;;;;;;;;;2.33;1.00;;;;;15.26;67.51;101143.88;4993039;28;45513;-46
2023/12/29 11:18:13;;;;;;;;;1.00;1.00;;;;;15.07;68.10;101138.81;4993411;28;46076;-46
2023/12/29 11:20:38;;;;;;;;;2.00;1.00;;;;;14.79;68.27;101127.56;4994036;28;45461;-47